createdAt,value
2022-10-11T00:00:21.009Z,12.88
2022-10-11T00:02:48.965Z,12.84
2022-10-11T00:05:16.839Z,12.84
2022-10-11T00:07:44.447Z,12.88
2022-10-11T00:10:12.443Z,12.73
2022-10-11T00:12:40.074Z,12.82
2022-10-11T00:15:08.905Z,12.76
2022-10-11T00:17:36.755Z,12.75
2022-10-11T00:20:05.030Z,12.57
2022-10-11T00:22:32.737Z,12.67
2022-10-11T00:25:00.786Z,12.69
2022-10-11T00:27:28.545Z,12.63
2022-10-11T00:29:56.416Z,12.62
2022-10-11T00:32:24.417Z,12.63
2022-10-11T00:34:52.107Z,12.66
2022-10-11T00:37:20.468Z,12.62
2022-10-11T00:39:49.439Z,12.53
2022-10-11T00:42:17.849Z,12.48
2022-10-11T00:44:49.576Z,12.51
2022-10-11T00:47:22.668Z,12.59
2022-10-11T00:49:53.792Z,12.50
2022-10-11T00:52:38.358Z,12.45
2022-10-11T00:55:09.860Z,12.48
2022-10-11T00:57:40.783Z,12.45
2022-10-11T01:00:11.556Z,12.45
2022-10-11T01:02:39.487Z,12.35
2022-10-11T01:05:28.205Z,12.38
2022-10-11T01:08:00.217Z,12.31
2022-10-11T01:10:28.431Z,12.35
2022-10-11T01:13:11.244Z,12.26
2022-10-11T01:16:12.012Z,12.26
2022-10-11T01:18:59.421Z,12.21
2022-10-11T01:21:48.043Z,12.31
2022-10-11T01:24:41.695Z,12.15
2022-10-11T01:27:28.364Z,12.16
2022-10-11T01:30:01.728Z,12.09
2022-10-11T01:32:54.755Z,12.09
2022-10-11T01:35:35.327Z,12.16
2022-10-11T01:38:11.099Z,12.15
2022-10-11T01:41:00.165Z,12.08
2022-10-11T01:43:29.017Z,12.10
2022-10-11T01:45:58.212Z,12.04
2022-10-11T01:48:25.803Z,12.08
2022-10-11T01:50:55.803Z,12.12
2022-10-11T01:53:35.505Z,12.09
2022-10-11T01:56:27.341Z,12.06
2022-10-11T01:59:23.431Z,12.05
2022-10-11T02:02:24.527Z,12.03
2022-10-11T02:05:06.410Z,11.92
2022-10-11T02:07:37.124Z,11.96
2022-10-11T02:10:26.917Z,11.85
2022-10-11T02:13:16.654Z,11.93
2022-10-11T02:15:45.422Z,11.88
2022-10-11T02:18:19.178Z,11.87
2022-10-11T02:20:47.904Z,11.94
2022-10-11T02:23:20.733Z,11.92
2022-10-11T02:25:49.230Z,11.88
2022-10-11T02:28:22.206Z,11.79
2022-10-11T02:30:51.335Z,11.80
2022-10-11T02:33:31.976Z,11.79
2022-10-11T02:36:05.917Z,11.77
2022-10-11T02:38:43.479Z,11.77
2022-10-11T02:41:29.987Z,11.64
2022-10-11T02:44:06.779Z,11.62
2022-10-11T02:46:35.726Z,11.88
2022-10-11T02:49:03.587Z,11.83
2022-10-11T02:51:31.287Z,11.83
2022-10-11T02:53:59.440Z,11.84
2022-10-11T02:56:27.104Z,11.75
2022-10-11T02:58:54.949Z,11.80
2022-10-11T03:01:23.184Z,11.80
2022-10-11T03:03:50.922Z,11.78
2022-10-11T03:06:18.776Z,11.73
2022-10-11T03:08:46.767Z,11.78
2022-10-11T03:11:14.499Z,11.84
2022-10-11T03:13:42.220Z,11.83
2022-10-11T03:16:10.488Z,11.78
2022-10-11T03:18:38.668Z,11.73
2022-10-11T03:21:06.466Z,11.76
2022-10-11T03:23:35.164Z,11.80
2022-10-11T03:26:03.295Z,11.73
2022-10-11T03:28:31.528Z,11.79
2022-10-11T03:30:59.867Z,11.84
2022-10-11T03:33:27.509Z,11.82
2022-10-11T03:35:55.107Z,11.87
2022-10-11T03:38:22.988Z,11.91
2022-10-11T03:40:50.993Z,11.86
2022-10-11T03:43:18.802Z,11.87
2022-10-11T03:45:46.749Z,11.89
2022-10-11T03:48:14.460Z,11.78
2022-10-11T03:50:42.276Z,11.79
2022-10-11T03:53:10.206Z,11.62
2022-10-11T03:55:39.006Z,11.71
2022-10-11T03:58:06.880Z,11.74
2022-10-11T04:00:35.262Z,11.65
2022-10-11T04:03:03.586Z,11.79
2022-10-11T04:05:31.258Z,11.81
2022-10-11T04:07:58.887Z,11.71
2022-10-11T04:10:26.949Z,11.71
2022-10-11T04:12:54.579Z,11.62
2022-10-11T04:15:22.151Z,11.71
2022-10-11T04:17:50.693Z,11.79
2022-10-11T04:20:18.906Z,11.65
2022-10-11T04:22:46.475Z,11.71
2022-10-11T04:25:14.498Z,11.76
2022-10-11T04:27:42.209Z,11.78
2022-10-11T04:30:10.692Z,11.77
2022-10-11T04:32:38.780Z,11.78
2022-10-11T04:35:06.573Z,11.75
2022-10-11T04:37:34.378Z,11.80
2022-10-11T04:40:02.300Z,11.69
2022-10-11T04:42:30.361Z,11.94
2022-10-11T04:44:57.979Z,11.79
2022-10-11T04:47:25.965Z,11.86
2022-10-11T04:49:53.751Z,11.87
2022-10-11T04:52:25.513Z,11.98
2022-10-11T04:54:54.274Z,11.94
2022-10-11T04:57:22.179Z,11.99
2022-10-11T04:59:50.501Z,12.02
2022-10-11T05:02:18.727Z,12.06
2022-10-11T05:04:46.370Z,12.06
2022-10-11T05:07:14.020Z,12.15
2022-10-11T05:09:41.974Z,12.14
2022-10-11T05:12:09.845Z,12.10
2022-10-11T05:14:37.483Z,12.11
2022-10-11T05:17:05.643Z,12.18
2022-10-11T05:19:33.390Z,12.21
2022-10-11T05:22:01.072Z,12.26
2022-10-11T05:24:29.004Z,12.27
2022-10-11T05:26:59.795Z,12.18
2022-10-11T05:29:31.058Z,12.18
2022-10-11T05:31:58.625Z,12.16
2022-10-11T05:34:26.237Z,12.25
2022-10-11T05:36:54.241Z,12.34
2022-10-11T05:39:21.920Z,12.28
2022-10-11T05:41:49.558Z,12.24
2022-10-11T05:44:17.808Z,12.19
2022-10-11T05:46:45.518Z,12.18
2022-10-11T05:49:13.122Z,12.14
2022-10-11T05:51:41.081Z,12.16
2022-10-11T05:54:08.714Z,12.16
2022-10-11T05:56:36.315Z,12.25
2022-10-11T05:59:04.657Z,12.19
2022-10-11T06:01:32.397Z,12.16
2022-10-11T06:04:00.440Z,12.19
2022-10-11T06:06:28.135Z,12.22
2022-10-11T06:08:55.673Z,12.38
2022-10-11T06:11:26.373Z,12.36
2022-10-11T06:13:55.204Z,12.35
2022-10-11T06:16:23.196Z,12.38
2022-10-11T06:18:57.460Z,12.42
2022-10-11T06:21:25.583Z,12.53
2022-10-11T06:23:59.904Z,12.57
2022-10-11T06:26:29.305Z,12.62
2022-10-11T06:28:57.460Z,12.89
2022-10-11T06:31:25.056Z,13.00
2022-10-11T06:33:52.983Z,13.10
2022-10-11T06:36:20.804Z,13.24
2022-10-11T06:38:52.107Z,13.39
2022-10-11T06:41:25.456Z,13.54
2022-10-11T06:43:53.468Z,13.73
2022-10-11T06:46:22.797Z,13.85
2022-10-11T06:48:50.890Z,13.99
2022-10-11T06:51:20.499Z,13.89
2022-10-11T06:53:52.630Z,14.05
2022-10-11T06:56:20.494Z,14.08
2022-10-11T06:58:48.495Z,14.15
2022-10-11T07:01:16.774Z,14.29
2022-10-11T07:03:44.789Z,14.23
2022-10-11T07:06:17.824Z,14.15
2022-10-11T07:08:46.013Z,14.21
2022-10-11T07:11:16.412Z,14.10
2022-10-11T07:13:49.504Z,14.10
2022-10-11T07:16:17.822Z,13.97
2022-10-11T07:18:46.289Z,14.16
2022-10-11T07:21:15.614Z,14.17
2022-10-11T07:23:43.624Z,14.26
2022-10-11T07:26:11.868Z,14.29
2022-10-11T07:28:40.334Z,14.50
2022-10-11T07:31:14.102Z,14.67
2022-10-11T07:33:41.986Z,14.80
2022-10-11T07:36:11.330Z,14.81
2022-10-11T07:38:40.453Z,14.78
2022-10-11T07:41:08.290Z,15.08
2022-10-11T07:43:37.185Z,15.05
2022-10-11T07:46:05.608Z,15.13
2022-10-11T07:48:35.203Z,15.28
2022-10-11T07:51:09.854Z,15.20
2022-10-11T07:53:48.013Z,15.24
2022-10-11T07:56:22.144Z,15.44
2022-10-11T07:58:54.938Z,15.70
2022-10-11T08:01:23.170Z,16.00
2022-10-11T08:03:51.168Z,16.13
2022-10-11T08:06:21.603Z,16.31
2022-10-11T08:08:49.458Z,16.44
2022-10-11T08:11:32.628Z,16.50
2022-10-11T08:14:00.744Z,16.79
2022-10-11T08:16:28.614Z,17.03
2022-10-11T08:18:56.549Z,17.14
2022-10-11T08:21:24.522Z,17.18
2022-10-11T08:23:52.610Z,17.32
2022-10-11T08:26:21.028Z,17.34
2022-10-11T08:28:48.804Z,17.20
2022-10-11T08:31:16.944Z,17.29
2022-10-11T08:33:44.726Z,17.43
2022-10-11T08:36:13.118Z,17.57
2022-10-11T08:38:41.481Z,17.64
2022-10-11T08:41:21.702Z,17.75
2022-10-11T08:43:55.699Z,17.88
2022-10-11T08:46:27.220Z,17.88
2022-10-11T08:48:55.285Z,17.63
2022-10-11T08:51:48.366Z,17.58
2022-10-11T08:54:19.167Z,17.65
2022-10-11T08:56:46.957Z,17.82
2022-10-11T08:59:31.458Z,17.84
2022-10-11T09:02:21.420Z,17.75
2022-10-11T09:04:51.158Z,18.12
2022-10-11T09:07:38.123Z,18.42
2022-10-11T09:10:43.464Z,18.38
2022-10-11T09:13:30.827Z,18.86
2022-10-11T09:16:02.310Z,18.56
2022-10-11T09:18:53.015Z,18.70
2022-10-11T09:21:45.812Z,18.51
2022-10-11T09:24:42.647Z,18.75
2022-10-11T09:27:19.660Z,18.88
2022-10-11T09:30:05.815Z,19.20
2022-10-11T09:32:38.794Z,19.40
2022-10-11T09:35:15.954Z,19.33
2022-10-11T09:37:56.244Z,19.11
2022-10-11T09:40:38.751Z,19.11
2022-10-11T09:43:08.036Z,19.16
2022-10-11T09:45:35.983Z,19.50
2022-10-11T09:48:05.759Z,18.90
2022-10-11T09:50:33.459Z,19.31
2022-10-11T09:53:03.783Z,19.70
2022-10-11T09:55:33.153Z,19.53
2022-10-11T09:58:02.973Z,19.42
2022-10-11T10:00:32.801Z,20.02
2022-10-11T10:03:02.817Z,20.09
2022-10-11T10:05:34.121Z,20.24
2022-10-11T10:08:11.332Z,20.46
2022-10-11T10:10:41.873Z,20.26
2022-10-11T10:13:38.993Z,20.09
2022-10-11T10:16:07.335Z,20.17
2022-10-11T10:18:48.167Z,20.25
2022-10-11T10:21:16.036Z,20.41
2022-10-11T10:23:44.247Z,20.09
2022-10-11T10:26:16.690Z,20.04
2022-10-11T10:29:10.307Z,20.05
2022-10-11T10:32:13.378Z,20.20
2022-10-11T10:35:03.494Z,20.23
2022-10-11T10:37:38.933Z,20.69
2022-10-11T10:40:16.687Z,20.53
2022-10-11T10:42:44.392Z,20.17
2022-10-11T10:45:21.106Z,20.32
2022-10-11T10:48:10.109Z,19.99
2022-10-11T10:50:55.034Z,20.23
2022-10-11T10:53:38.022Z,20.67
2022-10-11T10:56:15.743Z,20.63
2022-10-11T10:58:50.922Z,20.83
2022-10-11T11:01:31.089Z,20.72
2022-10-11T11:04:20.665Z,20.54
2022-10-11T11:06:52.183Z,20.96
2022-10-11T11:09:31.999Z,20.41
2022-10-11T11:12:05.892Z,20.69
2022-10-11T11:14:59.937Z,20.98
2022-10-11T11:17:46.633Z,21.00
2022-10-11T11:20:26.890Z,21.02
2022-10-11T11:23:13.458Z,21.25
2022-10-11T11:25:45.083Z,21.18
2022-10-11T11:28:26.471Z,21.47
2022-10-11T11:31:12.835Z,21.38
2022-10-11T11:33:52.829Z,21.04
2022-10-11T11:36:28.102Z,21.00
2022-10-11T11:38:59.573Z,20.80
2022-10-11T11:41:31.061Z,20.84
2022-10-11T11:44:16.242Z,20.51
2022-10-11T11:46:55.628Z,20.28
2022-10-11T11:49:34.357Z,19.80
2022-10-11T11:52:04.556Z,19.88
2022-10-11T11:54:54.066Z,19.84
2022-10-11T11:58:03.332Z,19.92
2022-10-11T12:00:57.562Z,19.84
2022-10-11T12:03:30.672Z,19.75
2022-10-11T12:06:13.709Z,20.34
2022-10-11T12:08:44.800Z,20.54
2022-10-11T12:11:30.568Z,20.71
2022-10-11T12:14:15.951Z,20.66
2022-10-11T12:17:05.233Z,21.06
2022-10-11T12:19:33.352Z,20.67
2022-10-11T12:22:56.837Z,20.93
2022-10-11T12:25:27.553Z,21.01
2022-10-11T12:27:55.830Z,21.04
2022-10-11T12:30:42.447Z,20.92
2022-10-11T12:33:49.881Z,20.90
2022-10-11T12:36:40.409Z,20.87
2022-10-11T12:39:20.183Z,20.80
2022-10-11T12:41:47.832Z,20.71
2022-10-11T12:44:18.363Z,20.84
2022-10-11T12:46:51.580Z,20.73
2022-10-11T12:49:25.299Z,20.45
2022-10-11T12:51:58.678Z,20.67
2022-10-11T12:54:50.443Z,20.87
2022-10-11T12:57:45.931Z,20.80
2022-10-11T13:00:27.333Z,20.85
2022-10-11T13:03:02.157Z,20.67
2022-10-11T13:05:44.784Z,20.78
2022-10-11T13:08:22.547Z,21.23
2022-10-11T13:10:51.198Z,20.86
2022-10-11T13:13:26.168Z,21.25
2022-10-11T13:15:56.385Z,21.33
2022-10-11T13:18:25.304Z,21.32
2022-10-11T13:20:53.089Z,21.57
2022-10-11T13:23:27.692Z,21.43
2022-10-11T13:25:56.955Z,20.67
2022-10-11T13:28:25.207Z,20.71
2022-10-11T13:30:54.898Z,20.91
2022-10-11T13:33:28.703Z,20.68
2022-10-11T13:35:57.275Z,20.53
2022-10-11T13:38:29.018Z,20.95
2022-10-11T13:40:58.915Z,20.54
2022-10-11T13:43:28.982Z,20.85
2022-10-11T13:46:01.586Z,21.14
2022-10-11T13:48:31.847Z,20.68
2022-10-11T13:51:06.423Z,20.63
2022-10-11T13:53:35.012Z,20.68
2022-10-11T13:56:06.246Z,20.30
2022-10-11T13:58:39.778Z,20.51
2022-10-11T14:01:19.456Z,20.32
2022-10-11T14:03:49.881Z,20.32
2022-10-11T14:06:20.945Z,20.16
2022-10-11T14:08:53.276Z,20.44
2022-10-11T14:11:38.193Z,20.06
2022-10-11T14:14:30.984Z,20.15
2022-10-11T14:17:05.202Z,20.09
2022-10-11T14:19:33.190Z,19.95
2022-10-11T14:22:00.875Z,19.90
2022-10-11T14:24:28.750Z,19.78
2022-10-11T14:26:56.960Z,19.74
2022-10-11T14:29:27.659Z,19.96
2022-10-11T14:31:56.773Z,19.76
2022-10-11T14:34:25.949Z,19.88
2022-10-11T14:36:53.722Z,19.75
2022-10-11T14:39:23.413Z,19.66
2022-10-11T14:41:52.441Z,19.80
2022-10-11T14:44:21.633Z,19.71
2022-10-11T14:46:52.439Z,19.59
2022-10-11T14:49:24.659Z,19.57
2022-10-11T14:51:56.891Z,19.59
2022-10-11T14:54:29.260Z,19.70
2022-10-11T14:56:58.816Z,19.07
2022-10-11T14:59:31.487Z,19.29
2022-10-11T15:01:59.331Z,19.19
2022-10-11T15:04:27.969Z,19.25
2022-10-11T15:06:57.662Z,19.12
2022-10-11T15:09:29.399Z,19.31
2022-10-11T15:11:57.361Z,19.17
2022-10-11T15:14:25.533Z,19.11
2022-10-11T15:16:53.589Z,19.09
2022-10-11T15:19:23.787Z,18.86
2022-10-11T15:21:54.194Z,18.92
2022-10-11T15:24:21.886Z,18.82
2022-10-11T15:26:55.179Z,18.72
2022-10-11T15:29:26.050Z,18.68
2022-10-11T15:31:56.304Z,18.53
2022-10-11T15:34:27.259Z,18.40
2022-10-11T15:36:54.890Z,18.17
2022-10-11T15:39:30.554Z,18.15
2022-10-11T15:41:58.831Z,17.94
2022-10-11T15:44:26.454Z,17.89
2022-10-11T15:46:54.153Z,17.75
2022-10-11T15:49:22.090Z,17.69
2022-10-11T15:51:49.748Z,17.62
2022-10-11T15:54:17.531Z,17.25
2022-10-11T15:56:45.523Z,17.05
2022-10-11T15:59:13.236Z,17.06
2022-10-11T16:01:40.948Z,16.89
2022-10-11T16:04:09.382Z,16.74
2022-10-11T16:06:36.895Z,16.61
2022-10-11T16:09:05.307Z,16.47
2022-10-11T16:11:33.205Z,16.35
2022-10-11T16:14:03.677Z,16.12
2022-10-11T16:16:31.245Z,16.17
2022-10-11T16:18:59.222Z,16.07
2022-10-11T16:21:26.866Z,15.95
2022-10-11T16:23:54.490Z,15.98
2022-10-11T16:26:22.403Z,15.89
2022-10-11T16:28:50.166Z,15.89
2022-10-11T16:31:18.472Z,15.70
2022-10-11T16:33:46.725Z,15.62
2022-10-11T16:36:16.684Z,15.54
2022-10-11T16:38:44.449Z,15.64
2022-10-11T16:41:12.517Z,15.46
2022-10-11T16:43:40.286Z,15.25
2022-10-11T16:46:08.337Z,15.04
2022-10-11T16:48:37.398Z,15.43
2022-10-11T16:51:06.812Z,15.40
2022-10-11T16:53:34.957Z,14.94
2022-10-11T16:56:10.127Z,15.19
2022-10-11T16:58:41.698Z,15.16
2022-10-11T17:01:11.047Z,15.01
2022-10-11T17:03:39.566Z,14.88
2022-10-11T17:06:07.791Z,14.96
2022-10-11T17:08:36.311Z,14.90
2022-10-11T17:11:06.507Z,14.85
2022-10-11T17:13:34.771Z,14.84
2022-10-11T17:16:03.066Z,14.81
2022-10-11T17:18:32.208Z,14.58
2022-10-11T17:21:03.845Z,14.70
2022-10-11T17:23:37.913Z,14.69
2022-10-11T17:26:11.224Z,14.68
2022-10-11T17:28:39.775Z,14.60
2022-10-11T17:31:14.070Z,14.35
2022-10-11T17:33:41.955Z,14.64
2022-10-11T17:36:32.493Z,14.79
2022-10-11T17:39:06.133Z,14.65
2022-10-11T17:41:34.086Z,14.53
2022-10-11T17:44:02.163Z,14.51
2022-10-11T17:46:30.232Z,14.49
2022-10-11T17:48:58.829Z,14.54
2022-10-11T17:51:26.982Z,14.47
2022-10-11T17:53:57.476Z,14.53
2022-10-11T17:56:31.443Z,14.52
2022-10-11T17:59:10.437Z,14.55
2022-10-11T18:01:38.325Z,14.56
2022-10-11T18:04:06.328Z,14.66
2022-10-11T18:06:38.535Z,14.57
2022-10-11T18:09:07.134Z,14.48
2022-10-11T18:11:35.488Z,14.22
2022-10-11T18:14:03.917Z,14.29
2022-10-11T18:16:32.620Z,14.21
2022-10-11T18:19:02.507Z,14.26
2022-10-11T18:21:34.300Z,14.26
2022-10-11T18:24:05.549Z,14.30
2022-10-11T18:26:33.777Z,14.33
2022-10-11T18:29:01.438Z,14.41
2022-10-11T18:31:31.750Z,14.40
2022-10-11T18:33:59.695Z,14.53
2022-10-11T18:36:29.713Z,14.54
2022-10-11T18:39:01.255Z,14.53
2022-10-11T18:41:30.940Z,14.57
2022-10-11T18:44:02.437Z,14.58
2022-10-11T18:46:30.662Z,14.59
2022-10-11T18:48:59.587Z,14.70
2022-10-11T18:51:32.981Z,14.79
2022-10-11T18:54:05.655Z,14.79
2022-10-11T18:56:35.895Z,14.76
2022-10-11T18:59:05.377Z,14.88
2022-10-11T19:01:41.559Z,14.84
2022-10-11T19:04:11.336Z,14.84
2022-10-11T19:06:42.136Z,14.76
2022-10-11T19:09:13.170Z,14.63
2022-10-11T19:11:41.323Z,14.66
2022-10-11T19:14:11.572Z,14.64
2022-10-11T19:16:41.734Z,14.63
2022-10-11T19:19:11.601Z,14.61
2022-10-11T19:21:39.482Z,14.66
2022-10-11T19:24:07.560Z,14.68
2022-10-11T19:26:37.416Z,14.63
2022-10-11T19:29:17.113Z,14.61
2022-10-11T19:31:50.128Z,14.57
2022-10-11T19:34:18.382Z,14.53
2022-10-11T19:36:46.467Z,14.51
2022-10-11T19:39:18.134Z,14.34
2022-10-11T19:41:46.530Z,14.36
2022-10-11T19:44:14.435Z,14.33
2022-10-11T19:46:51.469Z,14.26
2022-10-11T19:49:22.894Z,14.41
2022-10-11T19:51:51.595Z,14.40
2022-10-11T19:54:19.618Z,14.06
2022-10-11T19:56:47.372Z,13.94
2022-10-11T19:59:15.675Z,14.06
2022-10-11T20:01:46.836Z,14.19
2022-10-11T20:07:08.157Z,13.88
2022-10-11T20:09:36.085Z,13.75
2022-10-11T20:12:03.811Z,13.72
2022-10-11T20:14:31.489Z,13.74
2022-10-11T20:16:59.345Z,13.81
2022-10-11T20:19:30.710Z,13.72
2022-10-11T20:22:00.483Z,13.71
2022-10-11T20:24:28.499Z,13.70
2022-10-11T20:26:56.173Z,13.75
2022-10-11T20:29:24.921Z,13.78
2022-10-11T20:31:52.621Z,13.65
2022-10-11T20:34:20.449Z,13.67
2022-10-11T20:36:49.428Z,13.58
2022-10-11T20:39:17.162Z,13.58
2022-10-11T20:41:44.832Z,13.53
2022-10-11T20:44:12.746Z,13.58
2022-10-11T20:46:40.400Z,13.55
2022-10-11T20:49:10.162Z,13.40
2022-10-11T20:51:39.265Z,13.40
2022-10-11T20:54:07.248Z,13.44
2022-10-11T20:56:35.224Z,13.58
2022-10-11T20:59:03.390Z,13.55
2022-10-11T21:01:33.491Z,13.70
2022-10-11T21:04:01.716Z,13.77
2022-10-11T21:06:30.784Z,13.73
2022-10-11T21:08:59.319Z,13.77
2022-10-11T21:11:31.691Z,13.73
2022-10-11T21:14:01.681Z,13.79
2022-10-11T21:16:29.395Z,13.77
2022-10-11T21:18:58.412Z,13.81
2022-10-11T21:21:27.404Z,13.91
2022-10-11T21:24:02.168Z,13.83
2022-10-11T21:26:30.838Z,13.87
2022-10-11T21:28:58.649Z,13.74
2022-10-11T21:31:31.099Z,13.83
2022-10-11T21:34:02.183Z,14.01
2022-10-11T21:36:29.770Z,13.93
2022-10-11T21:38:57.437Z,13.95
2022-10-11T21:41:26.984Z,13.92
2022-10-11T21:43:54.594Z,13.90
2022-10-11T21:46:47.530Z,13.90
2022-10-11T21:49:15.827Z,13.63
2022-10-11T21:51:43.570Z,13.66
2022-10-11T21:54:11.492Z,13.69
2022-10-11T21:56:39.530Z,13.51
2022-10-11T21:59:11.087Z,13.77
2022-10-11T22:01:40.954Z,13.79
2022-10-11T22:04:09.302Z,13.79
2022-10-11T22:06:37.528Z,13.86
2022-10-11T22:09:05.915Z,13.82
2022-10-11T22:11:34.222Z,13.89
2022-10-11T22:14:01.848Z,13.98
2022-10-11T22:16:29.562Z,13.82
2022-10-11T22:18:57.633Z,13.85
2022-10-11T22:21:25.328Z,13.85
2022-10-11T22:23:53.926Z,13.80
2022-10-11T22:26:24.585Z,13.85
2022-10-11T22:28:52.657Z,13.75
2022-10-11T22:31:21.392Z,13.74
2022-10-11T22:33:53.501Z,13.78
2022-10-11T22:36:21.256Z,13.82
2022-10-11T22:38:49.336Z,13.78
2022-10-11T22:41:17.021Z,13.76
2022-10-11T22:43:44.670Z,13.78
2022-10-11T22:46:12.566Z,13.66
2022-10-11T22:48:40.509Z,13.69
2022-10-11T22:51:08.142Z,13.74
2022-10-11T22:53:36.075Z,13.80
2022-10-11T22:56:03.731Z,13.73
2022-10-11T22:58:31.326Z,13.74
2022-10-11T23:01:06.581Z,13.78
2022-10-11T23:03:34.232Z,13.77
2022-10-11T23:06:02.565Z,13.75
2022-10-11T23:08:30.487Z,13.69
2022-10-11T23:11:03.224Z,13.80
2022-10-11T23:13:31.191Z,13.85
2022-10-11T23:15:58.905Z,13.73
2022-10-11T23:18:26.587Z,13.56
2022-10-11T23:20:54.645Z,13.60
2022-10-11T23:23:22.153Z,13.63
2022-10-11T23:25:49.992Z,13.60
2022-10-11T23:28:18.040Z,13.54
2022-10-11T23:30:45.680Z,13.32
2022-10-11T23:33:13.301Z,12.87
2022-10-11T23:35:41.291Z,12.86
2022-10-11T23:38:08.925Z,12.91
2022-10-11T23:40:38.187Z,12.99
2022-10-11T23:43:06.522Z,12.98
2022-10-11T23:45:34.111Z,12.97
2022-10-11T23:48:01.812Z,13.15
2022-10-11T23:50:29.734Z,12.83
2022-10-11T23:52:57.295Z,12.68
2022-10-11T23:55:24.914Z,13.04
2022-10-11T23:57:52.920Z,13.21
